sensor_id;sensor_type;location;lat;lon;timestamp;P1;durP1;ratioP1;P2;durP2;ratioP2
30337;SDS011;17143;51.888;5.408;2023-06-22T00:08:01;6.13;;;3.87;;
30337;SDS011;17143;51.888;5.408;2023-06-22T00:23:05;5.30;;;3.13;;
30337;SDS011;17143;51.888;5.408;2023-06-22T00:38:08;6.53;;;4.30;;
30337;SDS011;17143;51.888;5.408;2023-06-22T00:53:10;6.07;;;4.10;;
30337;SDS011;17143;51.888;5.408;2023-06-22T01:08:21;6.40;;;4.40;;
30337;SDS011;17143;51.888;5.408;2023-06-22T01:23:33;5.37;;;3.70;;
30337;SDS011;17143;51.888;5.408;2023-06-22T01:38:43;7.33;;;4.33;;
30337;SDS011;17143;51.888;5.408;2023-06-22T01:53:47;7.80;;;4.57;;
30337;SDS011;17143;51.888;5.408;2023-06-22T02:08:51;5.67;;;4.03;;
30337;SDS011;17143;51.888;5.408;2023-06-22T02:23:58;7.93;;;3.90;;
30337;SDS011;17143;51.888;5.408;2023-06-22T02:39:00;6.50;;;4.17;;
30337;SDS011;17143;51.888;5.408;2023-06-22T02:54:03;5.77;;;4.30;;
30337;SDS011;17143;51.888;5.408;2023-06-22T03:09:05;6.17;;;4.20;;
30337;SDS011;17143;51.888;5.408;2023-06-22T03:24:08;7.87;;;4.63;;
30337;SDS011;17143;51.888;5.408;2023-06-22T03:39:10;7.87;;;5.00;;
30337;SDS011;17143;51.888;5.408;2023-06-22T03:54:12;7.40;;;5.20;;
30337;SDS011;17143;51.888;5.408;2023-06-22T04:09:14;8.03;;;4.90;;
30337;SDS011;17143;51.888;5.408;2023-06-22T04:24:16;7.13;;;4.67;;
30337;SDS011;17143;51.888;5.408;2023-06-22T04:39:18;6.70;;;5.10;;
30337;SDS011;17143;51.888;5.408;2023-06-22T04:54:20;8.53;;;4.83;;
30337;SDS011;17143;51.888;5.408;2023-06-22T05:09:22;7.70;;;5.13;;
30337;SDS011;17143;51.888;5.408;2023-06-22T05:24:24;8.00;;;5.63;;
30337;SDS011;17143;51.888;5.408;2023-06-22T05:39:26;10.13;;;7.40;;
30337;SDS011;17143;51.888;5.408;2023-06-22T05:54:28;9.97;;;6.87;;
30337;SDS011;17143;51.888;5.408;2023-06-22T06:09:30;10.37;;;7.37;;
30337;SDS011;17143;51.888;5.408;2023-06-22T06:24:32;14.80;;;7.70;;
30337;SDS011;17143;51.888;5.408;2023-06-22T06:39:34;12.13;;;8.10;;
30337;SDS011;17143;51.888;5.408;2023-06-22T06:54:36;15.57;;;8.90;;
30337;SDS011;17143;51.888;5.408;2023-06-22T07:09:38;11.57;;;8.07;;
30337;SDS011;17143;51.888;5.408;2023-06-22T07:24:40;10.30;;;6.80;;
30337;SDS011;17143;51.888;5.408;2023-06-22T07:39:42;10.73;;;7.30;;
30337;SDS011;17143;51.888;5.408;2023-06-22T07:54:44;6.77;;;5.57;;
30337;SDS011;17143;51.888;5.408;2023-06-22T08:09:47;9.67;;;5.63;;
30337;SDS011;17143;51.888;5.408;2023-06-22T08:24:49;7.70;;;3.70;;
30337;SDS011;17143;51.888;5.408;2023-06-22T08:39:51;4.83;;;3.80;;
30337;SDS011;17143;51.888;5.408;2023-06-22T08:54:53;4.93;;;3.50;;
30337;SDS011;17143;51.888;5.408;2023-06-22T09:09:55;5.43;;;3.17;;
30337;SDS011;17143;51.888;5.408;2023-06-22T09:24:57;4.17;;;3.03;;
30337;SDS011;17143;51.888;5.408;2023-06-22T09:39:59;5.10;;;3.70;;
30337;SDS011;17143;51.888;5.408;2023-06-22T09:55:01;5.73;;;3.90;;
30337;SDS011;17143;51.888;5.408;2023-06-22T10:10:04;4.50;;;3.23;;
30337;SDS011;17143;51.888;5.408;2023-06-22T10:25:07;5.07;;;3.10;;
30337;SDS011;17143;51.888;5.408;2023-06-22T10:40:10;4.23;;;3.10;;
30337;SDS011;17143;51.888;5.408;2023-06-22T10:55:13;6.53;;;3.23;;
30337;SDS011;17143;51.888;5.408;2023-06-22T11:10:15;4.23;;;3.50;;
30337;SDS011;17143;51.888;5.408;2023-06-22T11:25:18;4.03;;;3.03;;
30337;SDS011;17143;51.888;5.408;2023-06-22T11:40:20;4.17;;;3.10;;
30337;SDS011;17143;51.888;5.408;2023-06-22T11:55:22;5.50;;;3.77;;
30337;SDS011;17143;51.888;5.408;2023-06-22T12:10:24;4.80;;;3.50;;
30337;SDS011;17143;51.888;5.408;2023-06-22T12:25:26;5.00;;;4.40;;
30337;SDS011;17143;51.888;5.408;2023-06-22T12:40:28;6.33;;;5.33;;
30337;SDS011;17143;51.888;5.408;2023-06-22T12:55:30;11.73;;;6.90;;
30337;SDS011;17143;51.888;5.408;2023-06-22T13:10:32;10.80;;;8.00;;
30337;SDS011;17143;51.888;5.408;2023-06-22T13:25:34;10.30;;;6.97;;
30337;SDS011;17143;51.888;5.408;2023-06-22T13:40:36;8.03;;;6.73;;
30337;SDS011;17143;51.888;5.408;2023-06-22T13:55:39;10.60;;;6.50;;
30337;SDS011;17143;51.888;5.408;2023-06-22T14:10:42;9.87;;;6.67;;
30337;SDS011;17143;51.888;5.408;2023-06-22T14:25:44;10.90;;;6.57;;
30337;SDS011;17143;51.888;5.408;2023-06-22T14:40:46;9.10;;;6.73;;
30337;SDS011;17143;51.888;5.408;2023-06-22T14:55:48;9.43;;;6.73;;
30337;SDS011;17143;51.888;5.408;2023-06-22T15:10:50;10.90;;;7.40;;
30337;SDS011;17143;51.888;5.408;2023-06-22T15:25:52;8.43;;;7.17;;
30337;SDS011;17143;51.888;5.408;2023-06-22T15:40:54;6.53;;;5.90;;
30337;SDS011;17143;51.888;5.408;2023-06-22T15:55:56;4.67;;;4.23;;
30337;SDS011;17143;51.888;5.408;2023-06-22T16:10:58;4.97;;;3.87;;
30337;SDS011;17143;51.888;5.408;2023-06-22T16:26:00;3.67;;;3.37;;
30337;SDS011;17143;51.888;5.408;2023-06-22T16:41:02;4.00;;;3.50;;
30337;SDS011;17143;51.888;5.408;2023-06-22T16:56:04;4.23;;;3.80;;
30337;SDS011;17143;51.888;5.408;2023-06-22T17:11:06;5.63;;;4.60;;
30337;SDS011;17143;51.888;5.408;2023-06-22T17:26:10;4.87;;;4.17;;
30337;SDS011;17143;51.888;5.408;2023-06-22T17:41:12;4.47;;;4.03;;
30337;SDS011;17143;51.888;5.408;2023-06-22T17:56:17;6.37;;;3.80;;
30337;SDS011;17143;51.888;5.408;2023-06-22T18:11:19;4.23;;;3.63;;
30337;SDS011;17143;51.888;5.408;2023-06-22T18:26:21;5.40;;;3.77;;
30337;SDS011;17143;51.888;5.408;2023-06-22T18:41:33;4.10;;;3.70;;
30337;SDS011;17143;51.888;5.408;2023-06-22T18:56:36;4.50;;;4.10;;
30337;SDS011;17143;51.888;5.408;2023-06-22T19:11:57;4.10;;;3.70;;
30337;SDS011;17143;51.888;5.408;2023-06-22T19:27:18;3.50;;;3.20;;
30337;SDS011;17143;51.888;5.408;2023-06-22T19:42:21;4.07;;;3.40;;
30337;SDS011;17143;51.888;5.408;2023-06-22T19:57:24;3.50;;;2.60;;
30337;SDS011;17143;51.888;5.408;2023-06-22T20:12:26;5.00;;;3.40;;
30337;SDS011;17143;51.888;5.408;2023-06-22T20:27:28;2.73;;;2.30;;
30337;SDS011;17143;51.888;5.408;2023-06-22T20:42:30;2.07;;;1.23;;
30337;SDS011;17143;51.888;5.408;2023-06-22T20:57:32;1.40;;;1.30;;
30337;SDS011;17143;51.888;5.408;2023-06-22T21:12:34;1.60;;;1.07;;
30337;SDS011;17143;51.888;5.408;2023-06-22T21:27:36;1.73;;;1.40;;
30337;SDS011;17143;51.888;5.408;2023-06-22T21:42:39;1.90;;;1.60;;
30337;SDS011;17143;51.888;5.408;2023-06-22T21:57:41;2.00;;;1.63;;
30337;SDS011;17143;51.888;5.408;2023-06-22T22:12:43;3.00;;;1.80;;
30337;SDS011;17143;51.888;5.408;2023-06-22T22:27:45;4.20;;;1.90;;
30337;SDS011;17143;51.888;5.408;2023-06-22T22:42:48;2.20;;;1.70;;
30337;SDS011;17143;51.888;5.408;2023-06-22T22:57:50;2.37;;;1.73;;
30337;SDS011;17143;51.888;5.408;2023-06-22T23:12:52;2.40;;;1.87;;
30337;SDS011;17143;51.888;5.408;2023-06-22T23:27:54;1.63;;;1.53;;
30337;SDS011;17143;51.888;5.408;2023-06-22T23:42:56;3.23;;;2.17;;
30337;SDS011;17143;51.888;5.408;2023-06-22T23:57:58;3.37;;;2.40;;
